createdAt,value
2019-05-26T00:00:53.961Z,979.5
2019-05-26T00:01:58.319Z,979.5
2019-05-26T00:02:59.870Z,979.5
2019-05-26T00:04:03.160Z,979.5
2019-05-26T00:05:04.701Z,979.5
2019-05-26T00:06:08.663Z,979.6
2019-05-26T00:07:10.185Z,979.4
2019-05-26T00:08:11.475Z,979.5
2019-05-26T00:09:12.750Z,979.5
2019-05-26T00:10:14.393Z,979.4
2019-05-26T00:11:15.701Z,979.4
2019-05-26T00:12:17.768Z,979.4
2019-05-26T00:13:21.214Z,979.5
2019-05-26T00:14:25.757Z,979.5
2019-05-26T00:15:27.525Z,979.5
2019-05-26T00:16:28.889Z,979.5
2019-05-26T00:17:33.180Z,979.4
2019-05-26T00:18:35.069Z,979.5
2019-05-26T00:19:36.427Z,979.5
2019-05-26T00:20:40.473Z,979.5
2019-05-26T00:21:41.829Z,979.5
2019-05-26T00:22:43.105Z,979.5
2019-05-26T00:23:47.374Z,979.5
2019-05-26T00:24:48.697Z,979.5
2019-05-26T00:25:50.019Z,979.5
2019-05-26T00:26:51.341Z,979.5
2019-05-26T00:27:54.285Z,979.4
2019-05-26T00:28:55.565Z,979.4
2019-05-26T00:29:56.883Z,979.5
2019-05-26T00:30:58.182Z,979.4
2019-05-26T00:31:59.501Z,979.5
2019-05-26T00:33:00.942Z,979.4
2019-05-26T00:34:02.357Z,979.3
2019-05-26T00:35:03.665Z,979.4
2019-05-26T00:36:08.376Z,979.5
2019-05-26T00:37:09.709Z,979.4
2019-05-26T00:38:12.519Z,979.3
2019-05-26T00:39:13.818Z,979.5
2019-05-26T00:40:20.262Z,979.4
2019-05-26T00:41:22.962Z,979.3
2019-05-26T00:42:27.408Z,979.5
2019-05-26T00:43:28.693Z,979.4
2019-05-26T00:44:30.204Z,979.4
2019-05-26T00:45:31.490Z,979.4
2019-05-26T00:46:32.776Z,979.3
2019-05-26T00:47:34.123Z,979.3
2019-05-26T00:48:40.580Z,979.4
2019-05-26T00:49:41.869Z,979.5
2019-05-26T00:50:43.164Z,979.4
2019-05-26T00:51:44.465Z,979.4
2019-05-26T00:52:45.989Z,979.4
2019-05-26T00:53:47.274Z,979.3
2019-05-26T00:54:48.544Z,979.4
2019-05-26T00:55:49.868Z,979.4
2019-05-26T00:56:51.286Z,979.3
2019-05-26T00:57:52.682Z,979.3
2019-05-26T00:58:56.740Z,979.3
2019-05-26T00:59:58.134Z,979.4
2019-05-26T01:01:00.731Z,979.5
2019-05-26T01:02:02.340Z,979.3
2019-05-26T01:03:03.793Z,979.4
2019-05-26T01:04:05.103Z,979.4
2019-05-26T01:05:06.381Z,979.4
2019-05-26T01:06:07.681Z,979.4
2019-05-26T01:07:08.958Z,979.4
2019-05-26T01:08:10.266Z,979.5
2019-05-26T01:09:12.425Z,979.5
2019-05-26T01:10:13.955Z,979.4
2019-05-26T01:11:15.261Z,979.4
2019-05-26T01:12:16.542Z,979.5
2019-05-26T01:13:17.933Z,979.5
2019-05-26T01:14:19.228Z,979.4
2019-05-26T01:15:20.508Z,979.2
2019-05-26T01:16:22.042Z,979.5
2019-05-26T01:17:23.349Z,979.5
2019-05-26T01:18:24.664Z,979.4
2019-05-26T01:19:26.202Z,979.5
2019-05-26T01:20:27.818Z,979.2
2019-05-26T01:21:29.226Z,979.5
2019-05-26T01:22:30.540Z,979.4
2019-05-26T01:23:32.083Z,979.4
2019-05-26T01:24:33.427Z,979.4
2019-05-26T01:25:34.741Z,979.4
2019-05-26T01:26:36.013Z,979.4
2019-05-26T01:27:37.344Z,979.4
2019-05-26T01:28:38.648Z,979.3
2019-05-26T01:29:39.960Z,979.4
2019-05-26T01:30:41.256Z,979.3
2019-05-26T01:31:42.565Z,979.4
2019-05-26T01:32:44.080Z,979.3
2019-05-26T01:33:45.510Z,979.3
2019-05-26T01:34:46.830Z,979.5
2019-05-26T01:35:48.128Z,979.3
2019-05-26T01:36:49.748Z,979.3
2019-05-26T01:37:53.769Z,979.2
2019-05-26T01:38:57.850Z,979.3
2019-05-26T01:39:59.632Z,979.3
2019-05-26T01:41:00.964Z,979.2
2019-05-26T01:42:02.278Z,979.2
2019-05-26T01:43:03.576Z,979.3
2019-05-26T01:44:06.159Z,979.3
2019-05-26T01:45:07.540Z,979.3
2019-05-26T01:46:08.817Z,979.4
2019-05-26T01:47:10.138Z,979.3
2019-05-26T01:48:11.428Z,979.3
2019-05-26T01:49:12.764Z,979.4
2019-05-26T01:50:14.100Z,979.4
2019-05-26T01:51:15.400Z,979.3
2019-05-26T01:52:16.672Z,979.3
2019-05-26T01:53:17.982Z,979.4
2019-05-26T01:54:19.296Z,979.3
2019-05-26T01:55:20.585Z,979.3
2019-05-26T01:56:21.870Z,979.3
2019-05-26T01:57:23.168Z,979.3
2019-05-26T01:58:24.468Z,979.3
2019-05-26T01:59:25.804Z,979.3
2019-05-26T02:00:27.090Z,979.3
2019-05-26T02:01:28.417Z,979.2
2019-05-26T02:02:29.736Z,979.3
2019-05-26T02:03:33.788Z,979.2
2019-05-26T02:04:35.118Z,979.3
2019-05-26T02:05:36.434Z,979.3
2019-05-26T02:06:37.718Z,979.3
2019-05-26T02:07:41.512Z,979.3
2019-05-26T02:08:42.833Z,979.3
2019-05-26T02:09:44.141Z,979.3
2019-05-26T02:10:45.562Z,979.2
2019-05-26T02:11:46.848Z,979.2
2019-05-26T02:12:48.152Z,979.3
2019-05-26T02:13:49.447Z,979.2
2019-05-26T02:14:50.815Z,979.3
2019-05-26T02:15:52.180Z,979.3
2019-05-26T02:16:53.457Z,979.3
2019-05-26T02:17:54.728Z,979.2
2019-05-26T02:18:55.996Z,979.3
2019-05-26T02:19:57.334Z,979.2
2019-05-26T02:20:58.653Z,979.2
2019-05-26T02:21:59.932Z,979.3
2019-05-26T02:23:04.660Z,979.3
2019-05-26T02:24:06.052Z,979.3
2019-05-26T02:25:07.482Z,979.2
2019-05-26T02:26:09.022Z,979.3
2019-05-26T02:27:10.791Z,979.3
2019-05-26T02:28:12.096Z,979.3
2019-05-26T02:29:18.156Z,979.2
2019-05-26T02:30:19.576Z,979.4
2019-05-26T02:31:20.903Z,979.3
2019-05-26T02:32:22.399Z,979.2
2019-05-26T02:33:25.980Z,979.2
2019-05-26T02:34:27.323Z,979.2
2019-05-26T02:35:28.661Z,979.2
2019-05-26T02:36:29.949Z,979.1
2019-05-26T02:37:31.262Z,979.2
2019-05-26T02:38:32.536Z,979.2
2019-05-26T02:39:33.821Z,979.2
2019-05-26T02:40:38.264Z,979.3
2019-05-26T02:41:39.665Z,979.3
2019-05-26T02:42:40.997Z,979
2019-05-26T02:43:42.318Z,979.3
2019-05-26T02:44:43.594Z,979.3
2019-05-26T02:45:44.950Z,979.2
2019-05-26T02:46:46.232Z,979.2
2019-05-26T02:47:47.663Z,979.3
2019-05-26T02:48:49.328Z,979.2
2019-05-26T02:49:50.625Z,979.2
2019-05-26T02:50:51.943Z,979.2
2019-05-26T02:51:53.233Z,979.2
2019-05-26T02:52:57.388Z,979.2
2019-05-26T02:53:58.710Z,979.2
2019-05-26T02:55:00.013Z,979.1
2019-05-26T02:56:01.389Z,979.3
2019-05-26T02:57:05.074Z,979.2
2019-05-26T02:58:06.377Z,979.1
2019-05-26T02:59:07.640Z,979.3
2019-05-26T03:00:08.937Z,979.2
2019-05-26T03:01:13.770Z,979.2
2019-05-26T03:02:15.060Z,979.1
2019-05-26T03:03:19.019Z,979.2
2019-05-26T03:04:20.287Z,979.1
2019-05-26T03:05:21.575Z,979.2
2019-05-26T03:06:22.925Z,979.3
2019-05-26T03:07:24.218Z,979.2
2019-05-26T03:08:25.512Z,979.2
2019-05-26T03:09:26.795Z,979.1
2019-05-26T03:10:28.079Z,979.2
2019-05-26T03:11:29.776Z,979.2
2019-05-26T03:12:31.079Z,979.3
2019-05-26T03:13:32.384Z,979.2
2019-05-26T03:14:33.661Z,979.2
2019-05-26T03:15:35.033Z,979.3
2019-05-26T03:16:37.898Z,979.4
2019-05-26T03:17:39.246Z,979.3
2019-05-26T03:18:40.561Z,979.3
2019-05-26T03:19:41.857Z,979.2
2019-05-26T03:20:43.156Z,979.2
2019-05-26T03:21:44.488Z,979.1
2019-05-26T03:22:45.827Z,979.2
2019-05-26T03:23:47.126Z,979.2
2019-05-26T03:24:48.428Z,979.2
2019-05-26T03:25:49.704Z,979.2
2019-05-26T03:26:53.149Z,979.2
2019-05-26T03:27:54.553Z,979.2
2019-05-26T03:29:00.646Z,979.1
2019-05-26T03:30:01.968Z,979.1
2019-05-26T03:31:03.304Z,979.2
2019-05-26T03:32:04.690Z,979.1
2019-05-26T03:33:06.110Z,979.1
2019-05-26T03:34:07.434Z,979.1
2019-05-26T03:35:08.746Z,979.1
2019-05-26T03:36:11.515Z,979.1
2019-05-26T03:37:12.935Z,979.2
2019-05-26T03:38:14.231Z,979.1
2019-05-26T03:39:15.531Z,979.2
2019-05-26T03:40:16.838Z,979.1
2019-05-26T03:41:18.118Z,979
2019-05-26T03:42:19.429Z,979.1
2019-05-26T03:43:20.725Z,979.1
2019-05-26T03:44:22.015Z,979.1
2019-05-26T03:45:23.292Z,979.2
2019-05-26T03:46:24.577Z,979.1
2019-05-26T03:47:25.905Z,979.1
2019-05-26T03:48:27.203Z,979.1
2019-05-26T03:49:28.504Z,979.1
2019-05-26T03:50:29.798Z,979.1
2019-05-26T03:51:31.089Z,979.2
2019-05-26T03:52:32.435Z,979.3
2019-05-26T03:53:33.725Z,979.1
2019-05-26T03:54:34.997Z,979.1
2019-05-26T03:55:36.257Z,979.2
2019-05-26T03:56:37.527Z,979.2
2019-05-26T03:57:38.855Z,979.1
2019-05-26T03:58:40.141Z,979.2
2019-05-26T03:59:41.671Z,979.1
2019-05-26T04:00:42.982Z,979.1
2019-05-26T04:01:44.293Z,979
2019-05-26T04:02:45.608Z,979.1
2019-05-26T04:03:46.883Z,979.1
2019-05-26T04:04:48.153Z,979.1
2019-05-26T04:05:49.457Z,979.1
2019-05-26T04:06:50.743Z,979.1
2019-05-26T04:07:52.185Z,979.2
2019-05-26T04:08:53.585Z,979.1
2019-05-26T04:10:06.477Z,978.9
2019-05-26T04:11:07.900Z,979.1
2019-05-26T04:12:09.195Z,979.1
2019-05-26T04:13:10.523Z,979.1
2019-05-26T04:14:11.835Z,979.1
2019-05-26T04:15:13.462Z,979.1
2019-05-26T04:16:14.898Z,979
2019-05-26T04:17:18.105Z,979.1
2019-05-26T04:18:19.477Z,979.1
2019-05-26T04:19:20.799Z,978.9
2019-05-26T04:20:22.093Z,979
2019-05-26T04:21:23.371Z,979.1
2019-05-26T04:22:26.861Z,979.1
2019-05-26T04:23:28.174Z,979.1
2019-05-26T04:24:29.494Z,978.9
2019-05-26T04:25:30.785Z,979.1
2019-05-26T04:26:32.369Z,979
2019-05-26T04:27:33.956Z,979.1
2019-05-26T04:28:37.652Z,979.1
2019-05-26T04:29:38.986Z,979.1
2019-05-26T04:30:40.280Z,979.1
2019-05-26T04:31:41.560Z,978.9
2019-05-26T04:32:42.880Z,979
2019-05-26T04:33:44.212Z,979.1
2019-05-26T04:34:45.497Z,979.1
2019-05-26T04:35:46.775Z,979
2019-05-26T04:36:48.439Z,979.1
2019-05-26T04:37:49.772Z,979.2
2019-05-26T04:38:51.097Z,978.9
2019-05-26T04:39:52.375Z,978.8
2019-05-26T04:40:53.640Z,978.9
2019-05-26T04:41:56.904Z,979.1
2019-05-26T04:42:58.197Z,979.2
2019-05-26T04:43:59.624Z,979.1
2019-05-26T04:45:04.086Z,979.2
2019-05-26T04:46:05.445Z,979.1
2019-05-26T04:47:06.860Z,979
2019-05-26T04:48:08.205Z,979.2
2019-05-26T04:49:09.541Z,979.2
2019-05-26T04:50:10.945Z,979.1
2019-05-26T04:51:12.237Z,979.3
2019-05-26T04:52:13.525Z,978.9
2019-05-26T04:53:14.818Z,979.1
2019-05-26T04:54:16.407Z,979.2
2019-05-26T04:55:20.181Z,979.1
2019-05-26T04:56:22.941Z,979.1
2019-05-26T04:57:24.238Z,979.1
2019-05-26T04:58:25.548Z,979.1
2019-05-26T04:59:26.993Z,979.1
2019-05-26T05:00:28.345Z,979.2
2019-05-26T05:01:29.649Z,979.1
2019-05-26T05:02:30.931Z,979.1
2019-05-26T05:03:32.280Z,979.1
2019-05-26T05:04:33.623Z,979.1
2019-05-26T05:05:34.913Z,979
2019-05-26T05:06:36.193Z,979
2019-05-26T05:07:37.488Z,979.1
2019-05-26T05:08:38.757Z,978.9
2019-05-26T05:09:40.085Z,978.9
2019-05-26T05:10:43.582Z,979.1
2019-05-26T05:11:44.878Z,979.1
2019-05-26T05:12:46.232Z,979.1
2019-05-26T05:13:47.790Z,979.1
2019-05-26T05:14:49.112Z,979.1
2019-05-26T05:15:50.398Z,979
2019-05-26T05:16:51.686Z,979.1
2019-05-26T05:17:53.028Z,978.7
2019-05-26T05:18:54.298Z,979.1
2019-05-26T05:19:55.731Z,979.1
2019-05-26T05:20:57.162Z,979.1
2019-05-26T05:21:58.696Z,979
2019-05-26T05:22:59.977Z,979
2019-05-26T05:24:01.272Z,979.1
2019-05-26T05:25:02.649Z,979
2019-05-26T05:26:03.946Z,979
2019-05-26T05:27:05.276Z,979
2019-05-26T05:28:06.558Z,979
2019-05-26T05:29:07.854Z,979.1
2019-05-26T05:30:09.198Z,979
2019-05-26T05:31:10.477Z,979
2019-05-26T05:32:11.754Z,979
2019-05-26T05:33:13.096Z,979
2019-05-26T05:34:14.377Z,979
2019-05-26T05:35:15.710Z,979
2019-05-26T05:36:16.996Z,979
2019-05-26T05:37:18.410Z,979
2019-05-26T05:38:20.186Z,979
2019-05-26T05:39:21.590Z,979
2019-05-26T05:40:23.248Z,979
2019-05-26T05:41:24.538Z,978.9
2019-05-26T05:42:25.824Z,979
2019-05-26T05:43:27.140Z,979
2019-05-26T05:44:28.463Z,979
2019-05-26T05:45:29.975Z,978.9
2019-05-26T05:46:31.298Z,979
2019-05-26T05:47:32.659Z,979.1
2019-05-26T05:48:41.973Z,979
2019-05-26T05:49:43.458Z,979
2019-05-26T05:50:44.827Z,979
2019-05-26T05:51:46.156Z,979
2019-05-26T05:52:47.432Z,979
2019-05-26T05:53:51.069Z,979
2019-05-26T05:54:52.394Z,979
2019-05-26T05:55:53.733Z,978.9
2019-05-26T05:56:56.500Z,979
2019-05-26T05:57:58.244Z,978.9
2019-05-26T05:58:59.784Z,978.8
2019-05-26T06:00:01.054Z,978.9
2019-05-26T06:01:02.381Z,979
2019-05-26T06:02:03.678Z,978.9
2019-05-26T06:03:06.736Z,979
2019-05-26T06:04:08.018Z,979
2019-05-26T06:05:09.432Z,979
2019-05-26T06:06:10.758Z,979
2019-05-26T06:07:12.037Z,978.9
2019-05-26T06:08:13.787Z,979
2019-05-26T06:09:15.346Z,979
2019-05-26T06:10:16.645Z,979
2019-05-26T06:11:18.187Z,979
2019-05-26T06:12:19.584Z,979
2019-05-26T06:13:22.158Z,979.1
2019-05-26T06:14:23.643Z,979
2019-05-26T06:15:24.988Z,979
2019-05-26T06:16:26.328Z,979
2019-05-26T06:17:27.618Z,979
2019-05-26T06:18:28.937Z,978.8
2019-05-26T06:19:30.236Z,978.8
2019-05-26T06:20:31.566Z,978.9
2019-05-26T06:21:32.918Z,978.8
2019-05-26T06:22:34.345Z,978.8
2019-05-26T06:23:37.832Z,978.8
2019-05-26T06:24:39.144Z,978.8
2019-05-26T06:25:40.454Z,978.8
2019-05-26T06:26:41.776Z,978.9
2019-05-26T06:27:43.083Z,978.9
2019-05-26T06:28:44.383Z,979
2019-05-26T06:30:02.398Z,979.1
2019-05-26T06:31:03.711Z,979.1
2019-05-26T06:32:05.619Z,979
2019-05-26T06:33:09.253Z,979.2
2019-05-26T06:34:11.080Z,979.1
2019-05-26T06:35:12.806Z,979.1
2019-05-26T06:36:14.210Z,979
2019-05-26T06:37:16.546Z,978.9
2019-05-26T06:38:17.827Z,979
2019-05-26T06:39:19.222Z,978.9
2019-05-26T06:40:21.848Z,979
2019-05-26T06:41:34.084Z,979.1
2019-05-26T06:42:35.540Z,979.1
2019-05-26T06:43:38.586Z,978.8
2019-05-26T06:44:54.136Z,979.1
2019-05-26T06:45:55.527Z,979
2019-05-26T06:46:56.866Z,979
2019-05-26T06:47:58.558Z,979
2019-05-26T06:49:00.246Z,979.1
2019-05-26T06:50:01.517Z,979.1
2019-05-26T06:51:02.810Z,979.2
2019-05-26T06:52:04.335Z,979.2
2019-05-26T06:53:05.687Z,979.2
2019-05-26T06:54:06.963Z,979.3
2019-05-26T06:55:08.334Z,979.2
2019-05-26T06:56:09.636Z,979.2
2019-05-26T06:57:13.161Z,979.2
2019-05-26T06:58:14.511Z,979.1
2019-05-26T06:59:15.820Z,979.3
2019-05-26T07:00:17.167Z,979.4
2019-05-26T07:01:18.465Z,979.3
2019-05-26T07:02:19.766Z,979.4
2019-05-26T07:03:21.127Z,979.2
2019-05-26T07:04:22.418Z,979.4
2019-05-26T07:05:23.714Z,979.4
2019-05-26T07:06:25.062Z,979.2
2019-05-26T07:07:26.382Z,979.5
2019-05-26T07:08:27.715Z,979.5
2019-05-26T07:09:29.561Z,979.4
2019-05-26T07:10:35.622Z,979.5
2019-05-26T07:11:59.796Z,979.4
2019-05-26T07:13:01.660Z,979.3
2019-05-26T07:14:03.249Z,979.4
2019-05-26T07:15:04.585Z,979.5
2019-05-26T07:16:05.852Z,979.7
2019-05-26T07:17:07.162Z,979.6
2019-05-26T07:18:08.455Z,979.7
2019-05-26T07:19:09.785Z,979.6
2019-05-26T07:20:11.063Z,979.5
2019-05-26T07:21:12.373Z,979.5
2019-05-26T07:22:13.695Z,979.4
2019-05-26T07:23:15.009Z,979.4
2019-05-26T07:24:16.363Z,979.5
2019-05-26T07:25:17.663Z,979.6
2019-05-26T07:26:21.759Z,979.6
2019-05-26T07:27:23.329Z,979.5
2019-05-26T07:28:27.114Z,979.6
2019-05-26T07:29:28.462Z,979.5
2019-05-26T07:30:33.723Z,979.5
2019-05-26T07:31:38.003Z,979.7
2019-05-26T07:32:39.309Z,979.7
2019-05-26T07:33:40.603Z,979.8
2019-05-26T07:34:41.936Z,979.7
2019-05-26T07:35:43.227Z,979.7
2019-05-26T07:36:44.513Z,979.7
2019-05-26T07:37:45.839Z,979.7
2019-05-26T07:38:47.135Z,979.4
2019-05-26T07:39:48.659Z,979.6
2019-05-26T07:40:50.013Z,979.6
2019-05-26T07:42:11.089Z,979.6
2019-05-26T07:43:12.593Z,979.6
2019-05-26T07:44:14.176Z,979.7
2019-05-26T07:45:15.518Z,979.7
2019-05-26T07:46:16.817Z,979.6
2019-05-26T07:47:18.121Z,979.6
2019-05-26T07:48:22.087Z,979.5
2019-05-26T07:49:23.371Z,979.6
2019-05-26T07:50:24.754Z,979.6
2019-05-26T07:51:27.198Z,979.3
2019-05-26T07:52:29.272Z,979.4
2019-05-26T07:53:30.593Z,979.3
2019-05-26T07:54:32.659Z,979.3
2019-05-26T07:55:35.573Z,979.4
2019-05-26T07:56:36.889Z,979.3
2019-05-26T07:57:38.389Z,979.4
2019-05-26T07:58:39.846Z,979.3
2019-05-26T07:59:41.155Z,979.3
2019-05-26T08:00:45.033Z,979.4
2019-05-26T08:01:46.331Z,979.3
2019-05-26T08:02:47.585Z,979.3
2019-05-26T08:03:50.307Z,979.3
2019-05-26T08:04:52.977Z,979.4
2019-05-26T08:05:54.334Z,979.2
2019-05-26T08:06:55.630Z,979.2
2019-05-26T08:08:13.495Z,979.2
2019-05-26T08:09:15.003Z,979
2019-05-26T08:10:16.317Z,979.3
2019-05-26T08:11:17.622Z,979.4
2019-05-26T08:12:30.665Z,979.3
2019-05-26T08:13:32.343Z,979.3
2019-05-26T08:14:33.641Z,979.2
2019-05-26T08:15:34.925Z,979
2019-05-26T08:16:36.298Z,979.2
2019-05-26T08:17:37.615Z,979.2
2019-05-26T08:18:39.187Z,979.2
2019-05-26T08:19:40.488Z,979.2
2019-05-26T08:20:44.235Z,979.1
2019-05-26T08:21:45.556Z,979
2019-05-26T08:22:47.953Z,978.9
2019-05-26T08:23:49.229Z,978.9
2019-05-26T08:24:50.521Z,978.8
2019-05-26T08:25:51.978Z,979.1
2019-05-26T08:26:53.311Z,979.1
2019-05-26T08:27:54.587Z,979.1
2019-05-26T08:28:55.907Z,979
2019-05-26T08:29:59.350Z,979.3
2019-05-26T08:31:00.686Z,979.3
2019-05-26T08:32:02.139Z,979.2
2019-05-26T08:33:03.517Z,979.1
2019-05-26T08:34:04.815Z,979.1
2019-05-26T08:35:08.128Z,979.2
2019-05-26T08:36:09.443Z,979.1
2019-05-26T08:37:10.816Z,979
2019-05-26T08:38:15.403Z,979
2019-05-26T08:39:20.191Z,978.9
2019-05-26T08:40:21.947Z,978.9
2019-05-26T08:41:23.249Z,979
2019-05-26T08:42:43.695Z,978.9
2019-05-26T08:43:45.643Z,978.9
2019-05-26T08:44:47.171Z,978.9
2019-05-26T08:45:51.195Z,978.9
2019-05-26T08:46:53.773Z,978.9
2019-05-26T08:47:55.209Z,978.7
2019-05-26T08:48:56.539Z,978.9
2019-05-26T08:49:59.223Z,979
2019-05-26T08:51:02.269Z,978.5
2019-05-26T08:52:04.082Z,978.7
2019-05-26T08:53:05.636Z,978.3
2019-05-26T08:54:06.961Z,978.5
2019-05-26T08:55:08.645Z,978.7
2019-05-26T08:56:09.955Z,978.8
2019-05-26T08:57:11.297Z,978.7
2019-05-26T08:58:12.831Z,978.8
2019-05-26T08:59:14.329Z,978.9
2019-05-26T09:00:15.649Z,978.9
2019-05-26T09:01:17.297Z,978.9
2019-05-26T09:02:18.999Z,978.9
2019-05-26T09:03:20.642Z,979
2019-05-26T09:04:22.222Z,979.1
2019-05-26T09:05:24.033Z,979
2019-05-26T09:06:25.351Z,979
2019-05-26T09:07:26.831Z,978.9
2019-05-26T09:08:28.144Z,978.8
2019-05-26T09:09:29.429Z,978.9
2019-05-26T09:10:33.813Z,979
2019-05-26T09:11:43.519Z,979
2019-05-26T09:13:03.737Z,979
2019-05-26T09:14:20.779Z,979
2019-05-26T09:15:22.192Z,978.6
2019-05-26T09:16:26.522Z,978.9
2019-05-26T09:17:27.838Z,978.9
2019-05-26T09:18:29.146Z,978.7
2019-05-26T09:19:31.766Z,978.7
2019-05-26T09:20:34.193Z,978.8
2019-05-26T09:21:35.504Z,978.7
2019-05-26T09:22:42.719Z,978.8
2019-05-26T09:23:44.961Z,979
2019-05-26T09:24:46.348Z,978.8
2019-05-26T09:25:49.347Z,978.8
2019-05-26T09:26:52.626Z,978.9
2019-05-26T09:27:53.914Z,978.9
2019-05-26T09:29:10.532Z,978.8
2019-05-26T09:30:11.868Z,978.7
2019-05-26T09:31:13.401Z,978.9
2019-05-26T09:32:15.701Z,978.8
2019-05-26T09:33:17.031Z,978.8
2019-05-26T09:34:18.378Z,978.8
2019-05-26T09:35:19.774Z,978.8
2019-05-26T09:36:21.127Z,978.8
2019-05-26T09:37:22.448Z,978.5
2019-05-26T09:38:23.763Z,978.4
2019-05-26T09:39:25.352Z,978.5
2019-05-26T09:40:46.736Z,978.5
2019-05-26T09:41:51.282Z,978.2
2019-05-26T09:42:52.846Z,978.3
2019-05-26T09:43:54.155Z,978.4
2019-05-26T09:44:55.460Z,978.4
2019-05-26T09:45:58.080Z,978.3
2019-05-26T09:47:00.684Z,978.2
2019-05-26T09:48:04.654Z,978.1
2019-05-26T09:49:07.939Z,978.2
2019-05-26T09:50:09.483Z,978.3
2019-05-26T09:51:11.122Z,978.1
2019-05-26T09:52:12.484Z,978.1
2019-05-26T09:53:13.822Z,978.2
2019-05-26T09:54:15.486Z,978.2
2019-05-26T09:55:16.810Z,978.1
2019-05-26T09:56:18.136Z,978.1
2019-05-26T09:57:19.516Z,978.2
2019-05-26T09:58:20.847Z,978.1
2019-05-26T09:59:22.162Z,978.1
2019-05-26T10:00:23.520Z,978.1
2019-05-26T10:01:24.874Z,978.1
2019-05-26T10:02:26.210Z,978.1
2019-05-26T10:03:28.587Z,978.2
2019-05-26T10:04:30.076Z,978.3
2019-05-26T10:05:31.404Z,978.2
2019-05-26T10:06:32.944Z,978.3
2019-05-26T10:07:40.616Z,978.3
2019-05-26T10:08:41.960Z,978.4
2019-05-26T10:09:43.284Z,978.4
2019-05-26T10:10:44.609Z,978.4
2019-05-26T10:11:46.180Z,978.3
2019-05-26T10:12:50.368Z,978.3
2019-05-26T10:13:53.826Z,978.2
2019-05-26T10:14:55.137Z,978.2
2019-05-26T10:15:56.485Z,978.3
2019-05-26T10:16:57.832Z,978.3
2019-05-26T10:18:01.935Z,978.2
2019-05-26T10:19:03.270Z,978.2
2019-05-26T10:20:04.738Z,978.2
2019-05-26T10:21:07.074Z,978.1
2019-05-26T10:22:11.170Z,978.1
2019-05-26T10:23:12.838Z,978
2019-05-26T10:24:17.295Z,977.9
2019-05-26T10:25:18.849Z,978
2019-05-26T10:26:20.222Z,977.9
2019-05-26T10:27:22.226Z,978
2019-05-26T10:28:23.562Z,978
2019-05-26T10:29:24.876Z,978
2019-05-26T10:30:33.671Z,977.9
2019-05-26T10:31:35.032Z,978
2019-05-26T10:32:36.841Z,977.9
2019-05-26T10:33:38.174Z,978
2019-05-26T10:34:39.459Z,977.9
2019-05-26T10:35:43.773Z,977.8
2019-05-26T10:36:45.102Z,977.9
2019-05-26T10:37:49.500Z,977.8
2019-05-26T10:38:58.096Z,977.8
2019-05-26T10:39:59.641Z,977.9
2019-05-26T10:41:00.966Z,977.8
2019-05-26T10:42:04.804Z,977.9
2019-05-26T10:43:06.766Z,977.8
2019-05-26T10:44:08.919Z,977.8
2019-05-26T10:45:10.194Z,977.8
2019-05-26T10:46:16.131Z,977.7
2019-05-26T10:47:17.445Z,977.7
2019-05-26T10:48:21.082Z,977.7
2019-05-26T10:49:28.380Z,977.7
2019-05-26T10:50:29.680Z,977.7
2019-05-26T10:51:32.005Z,977.7
2019-05-26T10:52:33.313Z,977.9
2019-05-26T10:53:34.678Z,977.7
2019-05-26T10:54:36.225Z,977.7
2019-05-26T10:55:37.848Z,977.6
2019-05-26T10:56:41.623Z,977.6
2019-05-26T10:57:45.138Z,977.6
2019-05-26T10:58:46.497Z,977.6
2019-05-26T10:59:49.610Z,977.6
2019-05-26T11:00:52.040Z,977.6
2019-05-26T11:01:55.725Z,977.5
2019-05-26T11:02:57.082Z,977.5
2019-05-26T11:04:01.412Z,977.4
2019-05-26T11:05:02.769Z,977.5
2019-05-26T11:06:04.096Z,977.5
2019-05-26T11:07:05.848Z,977.4
2019-05-26T11:08:10.070Z,977.3
2019-05-26T11:09:13.240Z,977.4
2019-05-26T11:10:14.823Z,977.4
2019-05-26T11:11:16.680Z,977.4
2019-05-26T11:12:27.318Z,977.5
2019-05-26T11:13:28.680Z,977.3
2019-05-26T11:14:30.106Z,977.4
2019-05-26T11:15:34.508Z,977.3
2019-05-26T11:16:35.829Z,977.3
2019-05-26T11:17:39.328Z,977.3
2019-05-26T11:18:40.650Z,977.3
2019-05-26T11:19:44.099Z,977.4
2019-05-26T11:20:46.675Z,977.3
2019-05-26T11:21:50.941Z,977.2
2019-05-26T11:22:55.050Z,977.2
2019-05-26T11:23:56.352Z,977.2
2019-05-26T11:24:57.775Z,977.2
2019-05-26T11:25:59.340Z,977.2
2019-05-26T11:27:12.321Z,977.3
2019-05-26T11:28:15.724Z,977.3
2019-05-26T11:29:17.052Z,977.3
2019-05-26T11:30:18.410Z,977.3
2019-05-26T11:31:22.776Z,977.3
2019-05-26T11:32:24.294Z,977.3
2019-05-26T11:33:28.234Z,977.3
2019-05-26T11:34:29.596Z,977.3
2019-05-26T11:35:35.603Z,977.2
2019-05-26T11:36:37.079Z,977.3
2019-05-26T11:37:40.400Z,977.3
2019-05-26T11:38:47.440Z,977.2
2019-05-26T11:39:51.335Z,977.2
2019-05-26T11:40:54.419Z,977
2019-05-26T11:42:12.630Z,977.1
2019-05-26T11:43:18.058Z,977.1
2019-05-26T11:44:19.396Z,977.1
2019-05-26T11:45:20.700Z,976.8
2019-05-26T11:46:22.340Z,977.1
2019-05-26T11:47:23.632Z,977.1
2019-05-26T11:48:24.916Z,977
2019-05-26T11:49:26.234Z,977
2019-05-26T11:50:27.572Z,977
2019-05-26T11:51:33.480Z,976.9
2019-05-26T11:52:39.959Z,976.9
2019-05-26T11:53:47.308Z,976.9
2019-05-26T11:54:49.857Z,977
2019-05-26T11:55:51.294Z,977
2019-05-26T11:56:52.880Z,976.9
2019-05-26T11:58:01.326Z,976.9
2019-05-26T11:59:10.119Z,976.9
2019-05-26T12:00:12.408Z,976.9
2019-05-26T12:01:14.044Z,976.9
2019-05-26T12:02:18.492Z,976.8
2019-05-26T12:03:20.113Z,976.9
2019-05-26T12:04:22.689Z,976.9
2019-05-26T12:05:24.062Z,976.9
2019-05-26T12:06:25.470Z,976.8
2019-05-26T12:07:26.887Z,976.7
2019-05-26T12:08:30.566Z,976.8
2019-05-26T12:09:32.306Z,976.8
2019-05-26T12:10:42.631Z,976.8
2019-05-26T12:11:46.183Z,976.8
2019-05-26T12:12:47.681Z,976.9
2019-05-26T12:13:49.296Z,976.9
2019-05-26T12:15:00.889Z,976.9
2019-05-26T12:16:02.220Z,976.8
2019-05-26T12:17:03.522Z,976.8
2019-05-26T12:18:05.965Z,976.8
2019-05-26T12:19:07.398Z,976.7
2019-05-26T12:20:09.177Z,976.7
2019-05-26T12:21:10.565Z,976.8
2019-05-26T12:22:11.884Z,976.7
2019-05-26T12:23:17.082Z,976.7
2019-05-26T12:24:18.379Z,976.7
2019-05-26T12:25:20.160Z,976.8
2019-05-26T12:26:21.525Z,976.8
2019-05-26T12:27:22.867Z,976.8
2019-05-26T12:28:30.117Z,976.7
2019-05-26T12:29:31.413Z,976.7
2019-05-26T12:30:32.719Z,976.7
2019-05-26T12:31:34.036Z,976.7
2019-05-26T12:32:35.737Z,976.7
2019-05-26T12:33:37.407Z,976.7
2019-05-26T12:34:40.978Z,976.6
2019-05-26T12:35:42.421Z,976.6
2019-05-26T12:36:43.984Z,976.7
2019-05-26T12:37:48.901Z,976.7
2019-05-26T12:38:54.001Z,976.6
2019-05-26T12:39:55.338Z,976.7
2019-05-26T12:40:56.923Z,976.7
2019-05-26T12:42:01.547Z,976.7
2019-05-26T12:43:07.529Z,976.7
2019-05-26T12:44:12.037Z,976.7
2019-05-26T12:45:13.355Z,976.8
2019-05-26T12:46:15.153Z,976.8
2019-05-26T12:47:16.571Z,976.8
2019-05-26T12:48:18.295Z,976.7
2019-05-26T12:49:19.649Z,976.8
2019-05-26T12:50:21.095Z,976.8
2019-05-26T12:51:22.595Z,976.8
2019-05-26T12:52:23.894Z,976.7
2019-05-26T12:53:25.315Z,976.7
2019-05-26T12:54:32.085Z,976.7
2019-05-26T12:55:40.089Z,976.8
2019-05-26T12:56:41.412Z,976.7
2019-05-26T12:57:50.046Z,976.7
2019-05-26T12:58:51.694Z,976.8
2019-05-26T12:59:54.215Z,976.7
2019-05-26T13:00:56.079Z,976.8
2019-05-26T13:01:59.661Z,976.7
2019-05-26T13:03:01.082Z,976.8
2019-05-26T13:04:02.396Z,976.8
2019-05-26T13:05:03.721Z,976.7
2019-05-26T13:06:05.247Z,976.8
2019-05-26T13:07:06.537Z,976.8
2019-05-26T13:08:08.063Z,976.8
2019-05-26T13:09:12.830Z,976.8
2019-05-26T13:10:17.838Z,976.8
2019-05-26T13:11:22.602Z,976.8
2019-05-26T13:12:24.325Z,976.8
2019-05-26T13:13:25.673Z,976.8
2019-05-26T13:14:28.766Z,976.8
2019-05-26T13:15:30.313Z,976.7
2019-05-26T13:16:35.264Z,976.8
2019-05-26T13:17:37.036Z,976.7
2019-05-26T13:18:42.391Z,976.7
2019-05-26T13:19:44.103Z,976.5
2019-05-26T13:20:45.493Z,976.7
2019-05-26T13:21:47.074Z,976.7
2019-05-26T13:22:48.730Z,976.7
2019-05-26T13:23:50.317Z,976.7
2019-05-26T13:24:51.683Z,976.7
2019-05-26T13:25:53.082Z,976.7
2019-05-26T13:26:54.419Z,976.7
2019-05-26T13:27:55.955Z,976.6
2019-05-26T13:28:58.325Z,976.6